createdAt,value
2023-04-16T00:00:11.065Z,10.63
2023-04-16T00:00:42.459Z,6.45
2023-04-16T00:01:13.938Z,11.93
2023-04-16T00:01:45.347Z,11.48
2023-04-16T00:02:17.046Z,5.90
2023-04-16T00:02:48.597Z,7.75
2023-04-16T00:03:20.581Z,8.80
2023-04-16T00:03:52.493Z,7.90
2023-04-16T00:04:24.393Z,11.13
2023-04-16T00:04:56.055Z,8.85
2023-04-16T00:05:27.588Z,6.53
2023-04-16T00:05:59.370Z,8.27
2023-04-16T00:06:31.806Z,9.65
2023-04-16T00:07:03.198Z,6.53
2023-04-16T00:07:34.771Z,11.90
2023-04-16T00:08:06.444Z,5.35
2023-04-16T00:08:38.119Z,9.73
2023-04-16T00:09:09.775Z,7.93
2023-04-16T00:09:41.308Z,8.15
2023-04-16T00:10:12.664Z,5.70
2023-04-16T00:10:44.103Z,6.15
2023-04-16T00:11:15.872Z,8.38
2023-04-16T00:11:47.249Z,5.82
2023-04-16T00:12:18.794Z,8.73
2023-04-16T00:12:50.393Z,9.00
2023-04-16T00:13:22.565Z,9.07
2023-04-16T00:13:54.011Z,8.32
2023-04-16T00:14:25.599Z,8.27
2023-04-16T00:14:57.078Z,5.60
2023-04-16T00:15:28.414Z,7.45
2023-04-16T00:15:59.830Z,11.07
2023-04-16T00:16:31.432Z,8.80
2023-04-16T00:17:03.023Z,3.53
2023-04-16T00:17:34.669Z,5.97
2023-04-16T00:18:06.140Z,10.40
2023-04-16T00:18:37.651Z,6.68
2023-04-16T00:19:09.202Z,8.40
2023-04-16T00:19:40.961Z,6.47
2023-04-16T00:20:12.446Z,7.63
2023-04-16T00:20:43.830Z,11.23
2023-04-16T00:21:15.481Z,7.88
2023-04-16T00:21:46.954Z,5.72
2023-04-16T00:22:18.876Z,8.82
2023-04-16T00:22:51.332Z,7.65
2023-04-16T00:23:24.866Z,6.93
2023-04-16T00:23:56.266Z,11.48
2023-04-16T00:24:27.828Z,6.00
2023-04-16T00:24:59.266Z,11.52
2023-04-16T00:25:31.371Z,8.27
2023-04-16T00:26:02.734Z,7.55
2023-04-16T00:26:34.504Z,12.50
2023-04-16T00:27:06.364Z,6.70
2023-04-16T00:27:37.779Z,10.93
2023-04-16T00:28:11.002Z,6.57
2023-04-16T00:28:42.795Z,9.30
2023-04-16T00:29:14.127Z,9.90
2023-04-16T00:29:45.746Z,9.30
2023-04-16T00:30:17.124Z,9.30
2023-04-16T00:30:48.497Z,6.38
2023-04-16T00:31:30.013Z,9.35
2023-04-16T00:32:01.446Z,7.93
2023-04-16T00:32:32.919Z,9.35
2023-04-16T00:33:04.759Z,9.35
2023-04-16T00:33:36.090Z,10.43
2023-04-16T00:34:07.666Z,10.10
2023-04-16T00:34:39.073Z,10.60
2023-04-16T00:35:10.513Z,7.25
2023-04-16T00:35:41.845Z,9.60
2023-04-16T00:36:13.331Z,9.05
2023-04-16T00:36:44.748Z,9.38
2023-04-16T00:37:16.276Z,9.27
2023-04-16T00:37:47.736Z,14.25
2023-04-16T00:38:19.101Z,8.38
2023-04-16T00:38:51.227Z,9.45
2023-04-16T00:39:22.625Z,10.97
2023-04-16T00:39:54.087Z,7.28
2023-04-16T00:40:28.980Z,9.27
2023-04-16T00:41:00.338Z,11.63
2023-04-16T00:41:31.737Z,9.65
2023-04-16T00:42:03.261Z,8.65
2023-04-16T00:42:37.004Z,6.57
2023-04-16T00:43:57.412Z,8.07
2023-04-16T00:44:29.290Z,7.28
2023-04-16T00:45:00.876Z,7.57
2023-04-16T00:45:32.722Z,6.22
2023-04-16T00:46:05.615Z,10.18
2023-04-16T00:46:37.880Z,7.78
2023-04-16T00:47:09.730Z,12.73
2023-04-16T00:47:41.254Z,7.43
2023-04-16T00:48:12.677Z,8.90
2023-04-16T00:48:44.871Z,8.85
2023-04-16T00:49:16.686Z,14.20
2023-04-16T00:49:48.161Z,13.23
2023-04-16T00:50:19.746Z,8.33
2023-04-16T00:50:51.338Z,12.10
2023-04-16T00:51:22.932Z,11.63
2023-04-16T00:51:54.481Z,10.25
2023-04-16T00:52:26.550Z,8.75
2023-04-16T00:52:58.244Z,13.45
2023-04-16T00:53:29.689Z,11.07
2023-04-16T00:54:01.796Z,11.10
2023-04-16T00:54:33.413Z,15.02
2023-04-16T00:55:07.589Z,15.10
2023-04-16T00:55:39.702Z,10.90
2023-04-16T00:56:11.980Z,10.50
2023-04-16T00:56:44.388Z,11.32
2023-04-16T00:57:15.863Z,12.57
2023-04-16T00:57:47.262Z,14.55
2023-04-16T00:58:18.842Z,10.40
2023-04-16T00:58:50.424Z,12.35
2023-04-16T00:59:21.991Z,12.13
2023-04-16T00:59:54.747Z,11.68
2023-04-16T01:00:26.929Z,17.35
2023-04-16T01:00:58.513Z,9.63
2023-04-16T01:01:30.009Z,16.02
2023-04-16T01:02:01.660Z,16.33
2023-04-16T01:02:34.361Z,15.73
2023-04-16T01:03:05.981Z,13.98
2023-04-16T01:03:44.798Z,13.25
2023-04-16T01:04:16.409Z,13.30
2023-04-16T01:04:48.016Z,14.95
2023-04-16T01:05:20.451Z,8.73
2023-04-16T01:05:52.526Z,12.77
2023-04-16T01:06:23.963Z,11.40
2023-04-16T01:06:55.553Z,12.38
2023-04-16T01:07:26.898Z,16.55
2023-04-16T01:08:00.615Z,11.55
2023-04-16T01:08:32.059Z,12.85
2023-04-16T01:09:03.798Z,12.48
2023-04-16T01:09:35.382Z,16.92
2023-04-16T01:10:07.315Z,12.93
2023-04-16T01:10:38.863Z,13.18
2023-04-16T01:11:12.002Z,11.15
2023-04-16T01:11:43.441Z,16.57
2023-04-16T01:12:14.874Z,12.65
2023-04-16T01:12:46.557Z,16.13
2023-04-16T01:13:17.994Z,14.43
2023-04-16T01:13:49.421Z,10.73
2023-04-16T01:14:20.775Z,13.40
2023-04-16T01:14:52.311Z,11.80
2023-04-16T01:15:23.793Z,11.98
2023-04-16T01:15:55.499Z,11.45
2023-04-16T01:16:27.091Z,12.32
2023-04-16T01:16:58.688Z,12.00
2023-04-16T01:17:30.499Z,12.18
2023-04-16T01:18:01.982Z,9.57
2023-04-16T01:18:33.919Z,15.93
2023-04-16T01:19:05.325Z,10.45
2023-04-16T01:19:36.896Z,10.70
2023-04-16T01:20:08.633Z,14.82
2023-04-16T01:20:40.054Z,9.13
2023-04-16T01:21:11.418Z,9.50
2023-04-16T01:21:42.896Z,12.43
2023-04-16T01:22:14.569Z,11.40
2023-04-16T01:22:46.089Z,13.52
2023-04-16T01:23:20.546Z,13.55
2023-04-16T01:23:51.955Z,13.25
2023-04-16T01:24:23.319Z,12.48
2023-04-16T01:24:54.679Z,14.48
2023-04-16T01:25:26.079Z,14.77
2023-04-16T01:25:57.719Z,14.13
2023-04-16T01:26:29.393Z,17.00
2023-04-16T01:27:01.113Z,15.88
2023-04-16T01:27:32.542Z,14.53
2023-04-16T01:28:04.208Z,14.10
2023-04-16T01:28:36.073Z,13.07
2023-04-16T01:29:07.647Z,10.77
2023-04-16T01:29:39.215Z,10.80
2023-04-16T01:30:10.885Z,11.43
2023-04-16T01:30:42.438Z,10.88
2023-04-16T01:31:14.039Z,17.10
2023-04-16T01:31:46.707Z,12.05
2023-04-16T01:32:18.263Z,13.00
2023-04-16T01:32:49.728Z,9.47
2023-04-16T01:33:21.477Z,18.23
2023-04-16T01:33:52.973Z,14.02
2023-04-16T01:34:24.667Z,14.43
2023-04-16T01:34:56.213Z,16.80
2023-04-16T01:35:27.627Z,11.65
2023-04-16T01:35:59.110Z,14.07
2023-04-16T01:36:30.580Z,14.02
2023-04-16T01:37:03.821Z,11.25
2023-04-16T01:37:35.240Z,13.30
2023-04-16T01:38:09.059Z,11.47
2023-04-16T01:38:40.631Z,15.65
2023-04-16T01:39:15.662Z,13.27
2023-04-16T01:39:47.086Z,11.38
2023-04-16T01:40:19.144Z,15.32
2023-04-16T01:40:50.811Z,17.10
2023-04-16T01:41:22.649Z,13.73
2023-04-16T01:41:54.033Z,11.50
2023-04-16T01:42:25.497Z,13.90
2023-04-16T01:42:57.080Z,10.88
2023-04-16T01:43:47.031Z,16.97
2023-04-16T01:44:18.438Z,10.70
2023-04-16T01:44:49.830Z,9.90
2023-04-16T01:45:21.874Z,13.38
2023-04-16T01:46:18.626Z,15.88
2023-04-16T01:46:50.181Z,11.63
2023-04-16T01:47:21.617Z,9.85
2023-04-16T01:47:53.211Z,10.20
2023-04-16T01:48:24.751Z,11.95
2023-04-16T01:48:56.961Z,14.88
2023-04-16T01:49:29.307Z,11.90
2023-04-16T01:50:01.444Z,20.02
2023-04-16T01:50:33.402Z,13.27
2023-04-16T01:51:05.120Z,12.70
2023-04-16T01:51:36.653Z,15.85
2023-04-16T01:52:08.610Z,12.93
2023-04-16T01:52:40.026Z,17.23
2023-04-16T01:53:11.408Z,15.18
2023-04-16T01:53:42.761Z,19.30
2023-04-16T01:54:14.186Z,14.52
2023-04-16T01:54:45.612Z,15.33
2023-04-16T01:55:17.048Z,16.20
2023-04-16T01:55:48.378Z,13.30
2023-04-16T01:56:19.925Z,13.40
2023-04-16T01:56:51.404Z,18.80
2023-04-16T01:57:22.988Z,13.55
2023-04-16T01:57:54.348Z,16.27
2023-04-16T01:58:28.459Z,18.15
2023-04-16T01:58:59.831Z,17.45
2023-04-16T01:59:31.390Z,13.65
2023-04-16T02:00:04.269Z,9.90
2023-04-16T02:00:35.697Z,19.10
2023-04-16T02:01:07.056Z,15.10
2023-04-16T02:01:38.821Z,14.25
2023-04-16T02:02:11.812Z,15.07
2023-04-16T02:02:43.469Z,17.17
2023-04-16T02:03:17.543Z,19.10
2023-04-16T02:03:49.555Z,22.02
2023-04-16T02:04:21.139Z,17.65
2023-04-16T02:04:52.559Z,10.70
2023-04-16T02:05:23.958Z,14.70
2023-04-16T02:05:55.646Z,18.95
2023-04-16T02:06:27.430Z,12.88
2023-04-16T02:06:59.104Z,17.45
2023-04-16T02:07:31.690Z,20.35
2023-04-16T02:08:06.284Z,11.20
2023-04-16T02:08:37.990Z,14.98
2023-04-16T02:09:09.538Z,16.90
2023-04-16T02:09:41.417Z,12.77
2023-04-16T02:10:12.839Z,13.73
2023-04-16T02:10:48.299Z,14.87
2023-04-16T02:11:19.991Z,16.73
2023-04-16T02:11:51.426Z,17.80
2023-04-16T02:12:23.001Z,14.60
2023-04-16T02:12:54.537Z,18.77
2023-04-16T02:13:26.112Z,16.45
2023-04-16T02:13:57.576Z,17.95
2023-04-16T02:14:29.967Z,13.85
2023-04-16T02:15:01.388Z,16.23
2023-04-16T02:15:32.995Z,13.15
2023-04-16T02:16:04.710Z,20.77
2023-04-16T02:16:36.311Z,16.95
2023-04-16T02:17:07.850Z,15.98
2023-04-16T02:17:39.269Z,20.73
2023-04-16T02:18:10.672Z,18.90
2023-04-16T02:18:42.076Z,15.95
2023-04-16T02:19:13.537Z,17.52
2023-04-16T02:19:45.105Z,18.20
2023-04-16T02:20:17.645Z,16.15
2023-04-16T02:20:52.059Z,16.15
2023-04-16T02:21:23.479Z,15.47
2023-04-16T02:21:55.203Z,20.13
2023-04-16T02:22:26.704Z,14.57
2023-04-16T02:22:58.045Z,18.25
2023-04-16T02:23:29.499Z,17.58
2023-04-16T02:24:00.860Z,19.20
2023-04-16T02:24:32.280Z,17.85
2023-04-16T02:25:03.981Z,13.02
2023-04-16T02:25:42.140Z,16.75
2023-04-16T02:26:13.639Z,21.17
2023-04-16T02:26:45.381Z,13.93
2023-04-16T02:27:16.836Z,21.02
2023-04-16T02:27:48.428Z,15.38
2023-04-16T02:28:19.854Z,18.50
2023-04-16T02:28:51.830Z,16.70
2023-04-16T02:29:23.266Z,14.20
2023-04-16T02:29:54.614Z,17.08
2023-04-16T02:30:26.567Z,15.32
2023-04-16T02:30:59.021Z,19.00
2023-04-16T02:31:30.679Z,16.75
2023-04-16T02:32:02.098Z,25.80
2023-04-16T02:32:33.724Z,17.08
2023-04-16T02:33:07.249Z,17.75
2023-04-16T02:33:38.923Z,14.40
2023-04-16T02:34:10.551Z,17.98
2023-04-16T02:34:42.971Z,16.00
2023-04-16T02:35:14.330Z,20.77
2023-04-16T02:35:45.725Z,21.20
2023-04-16T02:36:17.283Z,22.08
2023-04-16T02:36:48.636Z,16.90
2023-04-16T02:37:20.076Z,19.60
2023-04-16T02:37:51.474Z,19.92
2023-04-16T02:38:22.897Z,21.70
2023-04-16T02:38:54.345Z,19.17
2023-04-16T02:39:25.831Z,16.67
2023-04-16T02:39:58.009Z,23.02
2023-04-16T02:40:29.722Z,22.50
2023-04-16T02:41:01.153Z,20.45
2023-04-16T02:41:32.576Z,16.92
2023-04-16T02:42:04.113Z,17.15
2023-04-16T02:42:35.503Z,16.20
2023-04-16T02:43:06.839Z,15.70
2023-04-16T02:43:38.434Z,15.50
2023-04-16T02:44:09.923Z,20.35
2023-04-16T02:44:41.461Z,20.65
2023-04-16T02:45:13.105Z,20.20
2023-04-16T02:45:44.778Z,20.55
2023-04-16T02:46:16.686Z,16.10
2023-04-16T02:46:48.058Z,18.38
2023-04-16T02:47:19.671Z,18.50
2023-04-16T02:47:51.340Z,17.97
2023-04-16T02:48:22.726Z,17.33
2023-04-16T02:48:54.083Z,23.05
2023-04-16T02:49:25.478Z,18.30
2023-04-16T02:49:56.823Z,16.25
2023-04-16T02:50:28.228Z,15.65
2023-04-16T02:50:59.630Z,13.15
2023-04-16T02:51:31.032Z,18.88
2023-04-16T02:52:02.388Z,17.35
2023-04-16T02:52:33.773Z,14.75
2023-04-16T02:53:06.559Z,17.80
2023-04-16T02:53:37.914Z,19.92
2023-04-16T02:54:09.281Z,19.85
2023-04-16T02:54:40.723Z,20.00
2023-04-16T02:55:12.147Z,22.95
2023-04-16T02:55:52.405Z,20.08
2023-04-16T02:56:23.801Z,18.05
2023-04-16T02:56:55.535Z,16.10
2023-04-16T02:57:27.058Z,19.90
2023-04-16T02:57:58.474Z,16.75
2023-04-16T02:58:29.841Z,23.43
2023-04-16T02:59:01.380Z,21.38
2023-04-16T02:59:32.846Z,23.30
2023-04-16T03:00:05.101Z,22.48
2023-04-16T03:00:38.026Z,16.35
2023-04-16T03:01:09.702Z,20.98
2023-04-16T03:01:41.263Z,15.80
2023-04-16T03:02:13.905Z,23.35
2023-04-16T03:02:45.445Z,16.40
2023-04-16T03:03:17.114Z,18.25
2023-04-16T03:03:48.742Z,19.87
2023-04-16T03:04:20.131Z,19.80
2023-04-16T03:04:51.669Z,19.98
2023-04-16T03:05:23.096Z,18.23
2023-04-16T03:05:54.479Z,25.30
2023-04-16T03:06:26.965Z,17.77
2023-04-16T03:06:58.361Z,21.70
2023-04-16T03:07:29.845Z,16.90
2023-04-16T03:08:01.192Z,23.70
2023-04-16T03:08:32.752Z,18.10
2023-04-16T03:09:04.184Z,17.67
2023-04-16T03:09:35.900Z,17.50
2023-04-16T03:10:08.254Z,24.38
2023-04-16T03:10:40.064Z,18.23
2023-04-16T03:11:11.639Z,16.17
2023-04-16T03:11:42.997Z,19.85
2023-04-16T03:12:14.438Z,20.60
2023-04-16T03:12:46.004Z,21.85
2023-04-16T03:13:17.413Z,19.70
2023-04-16T03:13:49.034Z,18.33
2023-04-16T03:14:20.620Z,25.27
2023-04-16T03:14:52.668Z,16.42
2023-04-16T03:15:24.251Z,21.85
2023-04-16T03:15:55.707Z,21.77
2023-04-16T03:16:27.303Z,19.17
2023-04-16T03:16:58.904Z,22.10
2023-04-16T03:17:30.422Z,20.77
2023-04-16T03:18:01.879Z,21.65
2023-04-16T03:18:33.429Z,17.83
2023-04-16T03:19:04.795Z,16.75
2023-04-16T03:19:36.215Z,20.10
2023-04-16T03:20:08.448Z,18.45
2023-04-16T03:20:39.787Z,20.83
2023-04-16T03:21:11.228Z,22.33
2023-04-16T03:21:42.768Z,22.80
2023-04-16T03:22:14.199Z,20.00
2023-04-16T03:22:46.958Z,18.85
2023-04-16T03:23:18.400Z,21.95
2023-04-16T03:23:49.790Z,22.75
2023-04-16T03:24:21.165Z,19.45
2023-04-16T03:24:52.567Z,20.77
2023-04-16T03:25:23.950Z,20.35
2023-04-16T03:25:55.363Z,18.73
2023-04-16T03:26:27.079Z,17.45
2023-04-16T03:26:58.884Z,19.33
2023-04-16T03:27:30.348Z,22.70
2023-04-16T03:28:03.704Z,18.05
2023-04-16T03:28:35.372Z,19.30
2023-04-16T03:29:07.236Z,18.33
2023-04-16T03:29:39.089Z,19.33
2023-04-16T03:30:14.090Z,18.30
2023-04-16T03:30:52.745Z,20.50
2023-04-16T03:31:24.942Z,21.80
2023-04-16T03:31:56.362Z,17.20
2023-04-16T03:32:27.980Z,20.95
2023-04-16T03:32:59.568Z,23.17
2023-04-16T03:33:31.125Z,18.65
2023-04-16T03:34:03.326Z,17.80
2023-04-16T03:34:34.712Z,19.70
2023-04-16T03:35:07.497Z,15.20
2023-04-16T03:35:38.870Z,21.87
2023-04-16T03:36:10.391Z,17.40
2023-04-16T03:36:41.809Z,18.55
2023-04-16T03:37:13.378Z,17.80
2023-04-16T03:37:44.816Z,16.35
2023-04-16T03:38:16.318Z,17.58
2023-04-16T03:38:47.725Z,20.85
2023-04-16T03:39:19.449Z,19.15
2023-04-16T03:39:50.894Z,18.65
2023-04-16T03:40:22.502Z,20.25
2023-04-16T03:40:54.018Z,20.20
2023-04-16T03:41:25.432Z,20.67
2023-04-16T03:41:56.914Z,16.75
2023-04-16T03:42:28.449Z,18.83
2023-04-16T03:42:59.922Z,24.45
2023-04-16T03:43:31.260Z,23.38
2023-04-16T03:44:02.799Z,15.88
2023-04-16T03:44:34.480Z,19.40
2023-04-16T03:45:06.399Z,17.67
2023-04-16T03:45:44.091Z,19.23
2023-04-16T03:46:15.946Z,17.37
2023-04-16T03:46:47.374Z,20.10
2023-04-16T03:47:19.018Z,17.73
2023-04-16T03:47:52.652Z,23.83
2023-04-16T03:48:24.266Z,20.20
2023-04-16T03:48:55.816Z,21.48
2023-04-16T03:49:27.368Z,15.10
2023-04-16T03:49:59.068Z,18.65
2023-04-16T03:50:30.653Z,20.20
2023-04-16T03:51:02.705Z,18.17
2023-04-16T03:51:34.081Z,17.90
2023-04-16T03:52:05.629Z,18.95
2023-04-16T03:52:37.178Z,19.65
2023-04-16T03:53:08.574Z,14.55
2023-04-16T03:53:39.926Z,18.25
2023-04-16T03:54:11.799Z,21.17
2023-04-16T03:54:43.368Z,16.55
2023-04-16T03:55:15.013Z,19.83
2023-04-16T03:55:51.370Z,17.83
2023-04-16T03:56:22.801Z,18.98
2023-04-16T03:56:54.288Z,18.53
2023-04-16T03:57:25.739Z,16.63
2023-04-16T03:57:57.450Z,14.23
2023-04-16T03:58:28.862Z,19.15
2023-04-16T03:59:00.249Z,22.42
2023-04-16T03:59:31.826Z,18.90
2023-04-16T04:00:03.520Z,17.42
2023-04-16T04:00:35.226Z,26.02
2023-04-16T04:01:06.606Z,19.38
2023-04-16T04:01:38.189Z,17.75
2023-04-16T04:02:09.707Z,21.27
2023-04-16T04:02:41.689Z,21.73
2023-04-16T04:03:14.037Z,19.23
2023-04-16T04:03:45.978Z,21.50
2023-04-16T04:04:17.851Z,19.27
2023-04-16T04:04:49.323Z,21.23
2023-04-16T04:05:20.796Z,21.25
2023-04-16T04:05:52.214Z,18.58
2023-04-16T04:06:23.619Z,19.85
2023-04-16T04:06:54.990Z,18.17
2023-04-16T04:07:26.554Z,18.37
2023-04-16T04:07:57.886Z,16.55
2023-04-16T04:08:29.285Z,19.98
2023-04-16T04:09:00.723Z,16.30
2023-04-16T04:09:32.206Z,20.00
2023-04-16T04:10:03.921Z,17.60
2023-04-16T04:10:36.183Z,20.95
2023-04-16T04:11:07.550Z,19.98
2023-04-16T04:11:39.000Z,18.73
2023-04-16T04:12:10.375Z,19.85
2023-04-16T04:12:41.820Z,19.67
2023-04-16T04:13:13.172Z,22.42
2023-04-16T04:13:44.555Z,18.40
2023-04-16T04:14:15.920Z,16.73
2023-04-16T04:14:47.322Z,19.52
2023-04-16T04:15:18.757Z,23.15
2023-04-16T04:15:50.398Z,21.45
2023-04-16T04:16:22.104Z,16.98
2023-04-16T04:16:53.495Z,21.10
2023-04-16T04:17:24.924Z,18.63
2023-04-16T04:17:56.626Z,17.37
2023-04-16T04:18:27.975Z,22.08
2023-04-16T04:19:00.363Z,18.80
2023-04-16T04:19:31.768Z,20.48
2023-04-16T04:20:03.450Z,22.08
2023-04-16T04:20:34.887Z,17.55
2023-04-16T04:21:09.372Z,23.90
2023-04-16T04:21:40.881Z,19.95
2023-04-16T04:22:12.303Z,21.45
2023-04-16T04:22:43.661Z,22.90
2023-04-16T04:23:15.388Z,16.87
2023-04-16T04:23:46.795Z,18.50
2023-04-16T04:24:18.154Z,18.63
2023-04-16T04:24:49.486Z,17.92
2023-04-16T04:25:20.919Z,19.45
2023-04-16T04:25:52.361Z,20.38
2023-04-16T04:26:23.813Z,19.20
2023-04-16T04:26:55.177Z,21.98
2023-04-16T04:27:27.131Z,17.48
2023-04-16T04:27:58.464Z,22.75
2023-04-16T04:28:30.771Z,22.13
2023-04-16T04:29:02.136Z,20.98
2023-04-16T04:29:33.512Z,26.10
2023-04-16T04:30:05.754Z,20.88
2023-04-16T04:30:37.158Z,21.25
2023-04-16T04:31:08.524Z,16.77
2023-04-16T04:31:40.028Z,20.23
2023-04-16T04:32:11.749Z,22.13
2023-04-16T04:32:43.242Z,16.75
2023-04-16T04:33:14.621Z,22.58
2023-04-16T04:33:46.308Z,20.83
2023-04-16T04:34:17.674Z,23.98
2023-04-16T04:34:49.059Z,21.85
2023-04-16T04:35:20.518Z,19.10
2023-04-16T04:35:52.565Z,22.20
2023-04-16T04:36:23.971Z,19.90
2023-04-16T04:36:55.551Z,19.60
2023-04-16T04:37:26.959Z,17.05
2023-04-16T04:37:58.412Z,23.75
2023-04-16T04:38:30.404Z,18.63
2023-04-16T04:39:01.809Z,22.03
2023-04-16T04:39:33.256Z,20.85
2023-04-16T04:40:05.025Z,19.80
2023-04-16T04:40:36.453Z,21.17
2023-04-16T04:41:07.893Z,20.75
2023-04-16T04:41:39.251Z,20.00
2023-04-16T04:42:11.025Z,20.42
2023-04-16T04:42:42.491Z,20.58
2023-04-16T04:43:14.354Z,21.15
2023-04-16T04:43:45.749Z,22.67
2023-04-16T04:44:17.126Z,20.07
2023-04-16T04:44:48.567Z,18.58
2023-04-16T04:45:19.936Z,19.33
2023-04-16T04:45:51.470Z,21.60
2023-04-16T04:46:22.910Z,22.02
2023-04-16T04:46:54.411Z,18.30
2023-04-16T04:47:26.227Z,19.83
2023-04-16T04:47:57.685Z,20.48
2023-04-16T04:48:29.319Z,21.05
2023-04-16T04:49:00.770Z,21.33
2023-04-16T04:49:32.137Z,21.93
2023-04-16T04:50:03.766Z,19.23
2023-04-16T04:50:36.107Z,23.52
2023-04-16T04:51:07.581Z,19.83
2023-04-16T04:51:39.023Z,21.75
2023-04-16T04:52:11.649Z,19.92
2023-04-16T04:52:43.030Z,22.48
2023-04-16T04:53:14.918Z,19.65
2023-04-16T04:53:46.543Z,20.88
2023-04-16T04:54:17.906Z,22.73
2023-04-16T04:54:49.252Z,26.77
2023-04-16T04:55:20.884Z,23.95
2023-04-16T04:55:54.200Z,24.13
2023-04-16T04:56:28.768Z,21.77
2023-04-16T04:57:00.311Z,27.80
2023-04-16T04:57:31.738Z,21.13
2023-04-16T04:58:04.589Z,21.42
2023-04-16T04:58:36.106Z,22.40
2023-04-16T04:59:07.874Z,20.73
2023-04-16T04:59:39.546Z,17.27
2023-04-16T05:00:11.430Z,24.17
2023-04-16T05:00:43.033Z,18.00
2023-04-16T05:01:14.763Z,19.20
2023-04-16T05:01:46.179Z,23.08
2023-04-16T05:02:17.712Z,20.30
2023-04-16T05:02:49.701Z,23.98
2023-04-16T05:03:21.960Z,23.70
2023-04-16T05:03:53.686Z,21.27
2023-04-16T05:04:25.472Z,22.80
2023-04-16T05:04:57.012Z,25.38
2023-04-16T05:05:28.417Z,25.20
2023-04-16T05:05:59.855Z,21.40
2023-04-16T05:06:31.641Z,25.52
2023-04-16T05:07:03.216Z,26.92
2023-04-16T05:07:34.590Z,29.80
2023-04-16T05:08:06.464Z,19.10
2023-04-16T05:08:37.881Z,22.42
2023-04-16T05:09:12.002Z,20.23
2023-04-16T05:09:43.411Z,21.88
2023-04-16T05:10:15.146Z,24.80
2023-04-16T05:10:46.471Z,28.23
2023-04-16T05:11:17.855Z,17.75
2023-04-16T05:11:49.301Z,23.38
2023-04-16T05:12:20.692Z,26.10
2023-04-16T05:12:52.132Z,18.25
2023-04-16T05:13:23.670Z,28.80
2023-04-16T05:13:55.086Z,26.35
2023-04-16T05:14:26.521Z,16.20
2023-04-16T05:14:57.903Z,20.77
2023-04-16T05:15:29.633Z,20.42
2023-04-16T05:16:01.068Z,22.47
2023-04-16T05:16:32.519Z,16.85
2023-04-16T05:17:04.126Z,25.40
2023-04-16T05:17:35.771Z,23.67
2023-04-16T05:18:07.177Z,17.45
2023-04-16T05:18:38.619Z,29.77
2023-04-16T05:19:10.559Z,18.67
2023-04-16T05:19:42.123Z,23.75
2023-04-16T05:20:13.621Z,19.50
2023-04-16T05:20:45.142Z,19.08
2023-04-16T05:21:16.684Z,17.27
2023-04-16T05:21:48.056Z,21.65
2023-04-16T05:22:19.389Z,20.50
2023-04-16T05:22:51.502Z,25.25
2023-04-16T05:23:22.961Z,21.17
2023-04-16T05:23:54.407Z,19.98
2023-04-16T05:25:14.780Z,20.48
2023-04-16T05:25:46.323Z,22.13
2023-04-16T05:26:17.784Z,18.45
2023-04-16T05:26:49.155Z,21.37
2023-04-16T05:27:20.675Z,18.77
2023-04-16T05:27:52.140Z,18.38
2023-04-16T05:28:23.616Z,23.20
2023-04-16T05:28:54.985Z,19.08
2023-04-16T05:29:26.583Z,25.02
2023-04-16T05:29:58.103Z,21.23
2023-04-16T05:30:29.449Z,25.98
2023-04-16T05:31:01.124Z,22.55
2023-04-16T05:31:32.625Z,24.35
2023-04-16T05:32:04.159Z,20.80
2023-04-16T05:32:35.845Z,20.42
2023-04-16T05:33:07.329Z,21.45
2023-04-16T05:33:38.683Z,21.85
2023-04-16T05:34:10.352Z,17.60
2023-04-16T05:34:41.734Z,22.15
2023-04-16T05:35:15.225Z,19.55
2023-04-16T05:35:48.372Z,23.50
2023-04-16T05:36:19.778Z,26.25
2023-04-16T05:36:51.146Z,32.90
2023-04-16T05:37:22.501Z,18.50
2023-04-16T05:37:53.909Z,28.13
2023-04-16T05:38:25.345Z,23.20
2023-04-16T05:38:56.822Z,22.55
2023-04-16T05:39:28.159Z,23.65
2023-04-16T05:39:59.541Z,22.67
2023-04-16T05:40:31.771Z,19.85
2023-04-16T05:41:04.115Z,17.63
2023-04-16T05:41:35.840Z,20.67
2023-04-16T05:42:07.453Z,20.42
2023-04-16T05:42:38.939Z,19.23
2023-04-16T05:43:10.341Z,25.23
2023-04-16T05:43:41.726Z,29.33
2023-04-16T05:44:13.209Z,23.60
2023-04-16T05:44:44.565Z,19.73
2023-04-16T05:45:15.949Z,16.60
2023-04-16T05:45:47.525Z,23.65
2023-04-16T05:46:19.079Z,21.55
2023-04-16T05:46:50.667Z,21.15
2023-04-16T05:47:22.289Z,25.05
2023-04-16T05:47:53.702Z,17.07
2023-04-16T05:48:25.122Z,25.63
2023-04-16T05:48:56.534Z,24.08
2023-04-16T05:49:27.967Z,26.25
2023-04-16T05:49:59.436Z,22.75
2023-04-16T05:50:30.971Z,22.67
2023-04-16T05:51:02.704Z,27.92
2023-04-16T05:51:34.095Z,19.67
2023-04-16T05:52:05.800Z,24.58
2023-04-16T05:52:38.344Z,24.23
2023-04-16T05:53:09.831Z,16.53
2023-04-16T05:53:41.719Z,22.80
2023-04-16T05:54:13.237Z,16.13
2023-04-16T05:54:44.840Z,21.52
2023-04-16T05:55:16.267Z,21.60
2023-04-16T05:55:47.744Z,17.27
2023-04-16T05:56:19.222Z,21.40
2023-04-16T05:56:51.027Z,21.23
2023-04-16T05:57:22.490Z,24.85
2023-04-16T05:57:53.894Z,23.02
2023-04-16T05:58:25.230Z,18.53
2023-04-16T05:58:56.609Z,24.75
2023-04-16T05:59:29.268Z,22.67
2023-04-16T06:00:00.726Z,22.23
2023-04-16T06:00:35.392Z,23.38
2023-04-16T06:01:07.506Z,19.10
2023-04-16T06:01:39.134Z,18.10
2023-04-16T06:02:10.910Z,20.48
2023-04-16T06:02:42.746Z,20.00
2023-04-16T06:03:14.347Z,20.35
2023-04-16T06:03:46.079Z,25.57
2023-04-16T06:04:17.741Z,25.83
2023-04-16T06:04:49.908Z,21.85
2023-04-16T06:05:21.521Z,20.30
2023-04-16T06:05:53.275Z,25.00
2023-04-16T06:06:24.852Z,19.92
2023-04-16T06:06:56.471Z,24.50
2023-04-16T06:07:27.847Z,25.50
2023-04-16T06:07:59.290Z,22.02
2023-04-16T06:08:31.000Z,21.50
2023-04-16T06:09:02.351Z,22.63
2023-04-16T06:09:33.887Z,21.88
2023-04-16T06:10:05.828Z,28.42
2023-04-16T06:10:37.447Z,25.05
2023-04-16T06:11:08.883Z,21.33
2023-04-16T06:11:40.415Z,24.83
2023-04-16T06:12:11.854Z,25.65
2023-04-16T06:12:43.372Z,22.05
2023-04-16T06:13:14.871Z,19.95
2023-04-16T06:13:46.246Z,21.70
2023-04-16T06:14:17.580Z,22.80
2023-04-16T06:14:49.289Z,23.00
2023-04-16T06:16:09.511Z,24.75
2023-04-16T06:16:41.079Z,21.58
2023-04-16T06:17:12.530Z,23.80
2023-04-16T06:17:44.236Z,23.30
2023-04-16T06:18:15.793Z,23.85
2023-04-16T06:18:47.404Z,22.38
2023-04-16T06:19:18.787Z,23.20
2023-04-16T06:19:50.188Z,27.30
2023-04-16T06:20:21.829Z,26.20
2023-04-16T06:20:53.405Z,17.95
2023-04-16T06:21:26.138Z,19.45
2023-04-16T06:21:58.033Z,25.98
2023-04-16T06:22:29.694Z,23.35
2023-04-16T06:23:01.208Z,21.77
2023-04-16T06:23:32.583Z,23.17
2023-04-16T06:24:04.135Z,19.23
2023-04-16T06:24:36.027Z,20.83
2023-04-16T06:25:07.917Z,26.57
2023-04-16T06:25:39.565Z,22.52
2023-04-16T06:26:11.750Z,23.58
2023-04-16T06:26:43.103Z,23.23
2023-04-16T06:27:14.620Z,18.33
2023-04-16T06:27:46.124Z,24.58
2023-04-16T06:28:17.481Z,18.30
2023-04-16T06:28:49.503Z,20.80
2023-04-16T06:29:22.510Z,25.75
2023-04-16T06:29:57.590Z,28.83
2023-04-16T06:30:29.184Z,25.27
2023-04-16T06:31:01.141Z,22.58
2023-04-16T06:31:32.693Z,25.00
2023-04-16T06:32:04.326Z,23.25
2023-04-16T06:32:35.856Z,21.33
2023-04-16T06:33:07.242Z,26.55
2023-04-16T06:33:38.600Z,21.98
2023-04-16T06:34:10.201Z,21.55
2023-04-16T06:34:41.546Z,22.88
2023-04-16T06:35:13.064Z,23.70
2023-04-16T06:35:44.445Z,26.07
2023-04-16T06:36:16.954Z,21.00
2023-04-16T06:36:48.304Z,26.50
2023-04-16T06:37:19.697Z,24.38
2023-04-16T06:37:51.099Z,22.65
2023-04-16T06:38:22.692Z,20.65
2023-04-16T06:38:54.054Z,23.17
2023-04-16T06:39:25.877Z,24.98
2023-04-16T06:39:57.396Z,21.80
2023-04-16T06:40:28.761Z,24.58
2023-04-16T06:41:00.548Z,23.70
2023-04-16T06:41:32.187Z,26.25
2023-04-16T06:42:04.261Z,23.55
2023-04-16T06:42:35.799Z,28.88
2023-04-16T06:43:07.246Z,23.98
2023-04-16T06:43:38.759Z,24.02
2023-04-16T06:44:10.373Z,22.60
2023-04-16T06:44:42.017Z,40.55
2023-04-16T06:45:13.648Z,27.38
2023-04-16T06:45:45.519Z,22.60
2023-04-16T06:46:17.024Z,23.67
2023-04-16T06:46:48.510Z,19.63
2023-04-16T06:47:19.949Z,23.58
2023-04-16T06:47:52.339Z,17.77
2023-04-16T06:48:23.959Z,29.20
2023-04-16T06:48:55.556Z,21.38
2023-04-16T06:49:27.077Z,25.20
2023-04-16T06:49:58.406Z,27.02
2023-04-16T06:50:29.916Z,23.02
2023-04-16T06:51:01.855Z,21.98
2023-04-16T06:51:33.594Z,22.00
2023-04-16T06:52:05.917Z,24.95
2023-04-16T06:52:37.740Z,26.02
2023-04-16T06:53:09.400Z,23.83
2023-04-16T06:53:41.015Z,25.05